Time;durP1;ratioP1;P1;durP2;ratioP2;P2;SDS_P1;SDS_P2;PMS_P1;PMS_P2;Temp;Humidity;BMP_temperature;BMP_pressure;BME280_temperature;BME280_humidity;BME280_pressure;Samples;Min_cycle;Max_cycle;Signal;HPM_P1;HPM_P2
2023/07/13 00:02:07;;;;;;;0.63;0.52;;;;;;;20.26;93.29;100535.25;4987369;28;20030;-62
2023/07/13 00:04:33;;;;;;;0.45;0.40;;;;;;;20.18;93.57;100524.84;4986465;28;20389;-61
2023/07/13 00:06:58;;;;;;;1.13;0.38;;;;;;;20.13;93.89;100530.81;4986602;28;20037;-62
2023/07/13 00:09:24;;;;;;;0.63;0.50;;;;;;;20.19;93.46;100540.09;4983175;28;20485;-62
2023/07/13 00:12:15;;;;;;;0.47;0.47;;;;;;;20.13;92.58;100541.75;4988802;28;20048;-62
2023/07/13 00:14:40;;;;;;;0.43;0.40;;;;;;;20.04;92.89;100539.59;4888594;29;20053;-62
2023/07/13 00:17:06;;;;;;;0.73;0.50;;;;;;;19.99;92.92;100534.63;4892154;29;20064;-62
2023/07/13 00:19:31;;;;;;;0.77;0.65;;;;;;;20.03;93.03;100535.31;4876971;29;20060;-62
2023/07/13 00:21:57;;;;;;;5.57;0.75;;;;;;;20.05;92.41;100540.34;4899531;29;20049;-62
2023/07/13 00:24:23;;;;;;;1.05;0.75;;;;;;;19.96;93.00;100540.13;4888455;29;20120;-61
2023/07/13 00:26:49;;;;;;;1.92;0.60;;;;;;;19.74;92.86;100543.28;4887796;29;20469;-62
2023/07/13 00:29:16;;;;;;;0.32;0.32;;;;;;;19.72;93.59;100531.25;4876179;29;20183;-61
2023/07/13 00:31:41;;;;;;;0.70;0.38;;;;;;;19.69;92.75;100521.13;4874897;29;20880;-62
2023/07/13 00:34:07;;;;;;;1.48;0.50;;;;;;;19.36;95.36;100514.72;4881646;29;20035;-62
2023/07/13 00:36:32;;;;;;;0.73;0.60;;;;;;;19.39;95.58;100515.84;4902781;29;20127;-61
2023/07/13 00:38:58;;;;;;;1.08;0.55;;;;;;;19.37;96.30;100523.69;4891145;29;20044;-62
2023/07/13 00:41:24;;;;;;;0.80;0.57;;;;;;;19.48;96.23;100532.47;4872838;29;20620;-62
2023/07/13 00:43:49;;;;;;;0.30;0.30;;;;;;;19.50;95.04;100533.59;4888288;29;20037;-62
2023/07/13 00:46:23;;;;;;;3.60;0.47;;;;;;;19.57;95.00;100536.19;4878320;29;20044;-62
2023/07/13 00:48:51;;;;;;;1.08;0.40;;;;;;;19.65;93.73;100536.81;4897304;29;20064;-61
2023/07/13 00:51:38;;;;;;;0.73;0.52;;;;;;;19.59;94.07;100533.81;4904806;28;20107;-62
2023/07/13 00:54:09;;;;;;;0.60;0.40;;;;;;;19.58;93.33;100542.44;4997216;28;20197;-62
2023/07/13 00:56:37;;;;;;;0.73;0.45;;;;;;;19.56;93.37;100534.66;5002957;28;20034;-61
2023/07/13 00:59:04;;;;;;;0.50;0.50;;;;;;;19.58;92.44;100537.75;4990126;28;20473;-61
2023/07/13 01:01:30;;;;;;;0.52;0.32;;;;;;;19.44;92.63;100535.25;5001012;28;20396;-61
2023/07/13 01:03:56;;;;;;;1.15;0.50;;;;;;;19.44;92.70;100532.53;4986693;28;20037;-62
2023/07/13 01:06:22;;;;;;;0.65;0.47;;;;;;;19.39;92.67;100527.56;4993929;28;20140;-62
2023/07/13 01:08:48;;;;;;;0.90;0.68;;;;;;;19.40;92.81;100536.50;4992496;28;20102;-62
2023/07/13 01:11:19;;;;;;;2.08;0.60;;;;;;;19.42;93.27;100531.41;4996254;28;20415;-62
2023/07/13 01:13:44;;;;;;;0.80;0.50;;;;;;;19.42;92.69;100534.91;4991462;28;20033;-61
2023/07/13 01:16:41;;;;;;;1.00;0.70;;;;;;;19.38;92.33;100531.47;4991771;28;20125;-62
2023/07/13 01:19:35;;;;;;;2.70;0.70;;;;;;;19.32;92.24;100537.78;4913437;29;20143;-61
2023/07/13 01:22:02;;;;;;;0.70;0.60;;;;;;;19.30;91.78;100532.75;4911855;29;20540;-61
2023/07/13 01:24:28;;;;;;;0.90;0.50;;;;;;;19.26;91.38;100526.56;4917373;29;20132;-62
2023/07/13 01:26:54;;;;;;;0.80;0.45;;;;;;;19.18;92.04;100527.88;4911623;29;20032;-61
2023/07/13 01:29:20;;;;;;;0.80;0.40;;;;;;;19.17;92.16;100534.53;4914030;29;20406;-63
2023/07/13 01:31:46;;;;;;;0.80;0.77;;;;;;;19.07;92.31;100540.16;4904332;29;20039;-62
2023/07/13 01:34:12;;;;;;;1.13;0.57;;;;;;;19.10;92.31;100537.41;4905447;29;20120;-61
2023/07/13 01:36:38;;;;;;;0.65;0.38;;;;;;;19.11;91.68;100535.41;4891187;29;20192;-61
2023/07/13 01:39:05;;;;;;;0.65;0.40;;;;;;;19.12;92.19;100542.44;4906034;29;20047;-61
2023/07/13 01:41:30;;;;;;;1.83;0.60;;;;;;;19.11;92.18;100549.84;4905257;29;20040;-61
2023/07/13 01:43:55;;;;;;;0.88;0.50;;;;;;;19.12;92.42;100545.94;4887398;29;20044;-61
2023/07/13 01:46:21;;;;;;;0.47;0.40;;;;;;;19.16;92.25;100541.19;4898103;29;20051;-61
2023/07/13 01:48:46;;;;;;;0.60;0.50;;;;;;;19.22;91.88;100533.31;4918719;29;20025;-62
2023/07/13 01:51:13;;;;;;;0.90;0.65;;;;;;;19.33;90.90;100537.41;4912499;29;20035;-61
2023/07/13 01:53:38;;;;;;;0.60;0.47;;;;;;;19.37;90.85;100534.63;4910012;29;20091;-62
2023/07/13 01:56:04;;;;;;;0.40;0.40;;;;;;;19.29;91.55;100533.16;4947122;28;20501;-62
2023/07/13 01:58:30;;;;;;;0.70;0.32;;;;;;;19.31;91.44;100542.50;4996317;28;20037;-62
2023/07/13 02:00:55;;;;;;;0.80;0.47;;;;;;;19.28;91.52;100534.38;4987963;28;20125;-62
2023/07/13 02:03:21;;;;;;;0.68;0.52;;;;;;;19.24;91.73;100539.88;4985628;28;20109;-61
2023/07/13 02:05:46;;;;;;;1.58;0.57;;;;;;;19.32;91.08;100549.53;4986309;28;20452;-62
2023/07/13 02:08:12;;;;;;;1.08;0.57;;;;;;;19.35;91.23;100537.78;4967613;28;20034;-62
2023/07/13 02:10:38;;;;;;;1.67;0.85;;;;;;;19.44;90.59;100532.53;4998119;28;20034;-62
2023/07/13 02:13:07;;;;;;;0.98;0.70;;;;;;;19.36;90.83;100539.31;4999983;28;20022;-61
2023/07/13 02:15:33;;;;;;;0.93;0.77;;;;;;;19.24;91.49;100550.03;4995202;28;20030;-61
2023/07/13 02:17:58;;;;;;;0.50;0.50;;;;;;;19.13;91.76;100546.69;4984357;28;20401;-62
2023/07/13 02:20:26;;;;;;;0.88;0.45;;;;;;;19.11;91.90;100541.66;4997599;28;20076;-62
2023/07/13 02:22:51;;;;;;;2.80;0.82;;;;;;;19.10;91.87;100550.25;5003497;28;20042;-63
2023/07/13 02:25:20;;;;;;;1.25;0.80;;;;;;;19.06;91.67;100544.88;4967091;28;20437;-61
2023/07/13 02:27:48;;;;;;;2.22;0.50;;;;;;;19.07;92.04;100543.66;4981011;28;20073;-62
2023/07/13 02:30:14;;;;;;;1.27;0.60;;;;;;;19.14;91.68;100543.56;4998158;28;20109;-61
2023/07/13 02:32:40;;;;;;;0.85;0.75;;;;;;;19.05;91.86;100543.31;4985493;28;20114;-62
2023/07/13 02:35:06;;;;;;;1.65;0.93;;;;;;;19.06;92.55;100544.88;4991496;28;20121;-62
2023/07/13 02:37:31;;;;;;;0.63;0.63;;;;;;;18.96;92.58;100556.72;4989314;28;20038;-61
2023/07/13 02:39:57;;;;;;;0.93;0.80;;;;;;;18.99;92.54;100550.41;4992893;28;20648;-62
2023/07/13 02:42:22;;;;;;;1.63;0.85;;;;;;;18.95;92.87;100546.22;4993139;28;20142;-62
2023/07/13 02:44:49;;;;;;;1.15;0.88;;;;;;;18.92;93.09;100550.53;4982405;28;20080;-62
2023/07/13 02:47:15;;;;;;;0.95;0.70;;;;;;;18.93;93.41;100552.84;4995207;28;20128;-61
2023/07/13 02:49:40;;;;;;;0.90;0.80;;;;;;;18.95;92.83;100546.22;4990453;28;20457;-62
2023/07/13 02:52:06;;;;;;;2.03;1.10;;;;;;;19.06;92.52;100541.34;4994935;28;20065;-62
2023/07/13 02:54:32;;;;;;;1.60;1.05;;;;;;;19.01;92.18;100539.84;4982476;28;20030;-62
2023/07/13 02:56:57;;;;;;;1.15;0.80;;;;;;;18.98;91.99;100540.69;5003061;23;20055;-59
2023/07/13 02:59:23;;;;;;;1.17;1.05;;;;;;;18.94;92.39;100553.63;4969452;28;20022;-61
2023/07/13 03:01:48;;;;;;;1.67;1.05;;;;;;;18.95;92.17;100549.69;4976598;28;20081;-62
2023/07/13 03:04:14;;;;;;;0.95;0.80;;;;;;;18.93;92.36;100552.06;4978032;28;20039;-59
2023/07/13 03:06:40;;;;;;;2.22;0.95;;;;;;;18.96;92.14;100558.66;4980000;28;20157;-58
2023/07/13 03:09:05;;;;;;;1.20;1.00;;;;;;;18.89;91.59;100562.31;4975959;28;20080;-59
2023/07/13 03:11:33;;;;;;;2.03;1.17;;;;;;;18.83;92.19;100561.22;4969999;28;20034;-61
2023/07/13 03:14:08;;;;;;;1.00;0.88;;;;;;;18.80;92.32;100560.06;4983541;28;20027;-60
2023/07/13 03:16:35;;;;;;;1.92;1.58;;;;;;;18.78;92.05;100551.53;4972069;28;20043;-61
2023/07/13 03:19:01;;;;;;;0.95;0.75;;;;;;;18.78;92.48;100548.03;4958517;28;20026;-59
2023/07/13 03:21:28;;;;;;;1.30;0.90;;;;;;;18.69;93.07;100545.03;4957844;28;20032;-59
2023/07/13 03:23:53;;;;;;;3.17;1.23;;;;;;;18.62;93.78;100551.38;4979698;28;20026;-62
2023/07/13 03:26:20;;;;;;;2.13;0.80;;;;;;;18.69;93.17;100555.97;4971522;28;20023;-64
2023/07/13 03:28:49;;;;;;;1.55;0.90;;;;;;;18.63;93.30;100563.06;4972791;28;20054;-63
2023/07/13 03:31:23;;;;;;;1.08;0.75;;;;;;;18.75;92.52;100548.84;4973487;28;20026;-63
2023/07/13 03:33:49;;;;;;;2.13;1.07;;;;;;;18.71;92.38;100546.19;4982673;28;20077;-64
2023/07/13 03:36:19;;;;;;;1.80;1.05;;;;;;;18.57;92.63;100548.31;4979651;28;20290;-63
2023/07/13 03:38:50;;;;;;;1.92;1.00;;;;;;;18.50;93.17;100551.16;4966582;28;20033;-64
2023/07/13 03:41:18;;;;;;;1.20;0.75;;;;;;;18.48;93.03;100553.53;4952471;28;20039;-64
2023/07/13 03:43:50;;;;;;;1.85;1.20;;;;;;;18.56;93.31;100554.97;4959876;28;20039;-60
2023/07/13 03:46:18;;;;;;;1.17;0.88;;;;;;;18.55;93.12;100559.66;4976901;28;20037;-63
2023/07/13 03:48:46;;;;;;;1.15;0.90;;;;;;;18.42;93.07;100561.41;4971417;28;20040;-62
2023/07/13 03:51:14;;;;;;;2.10;0.98;;;;;;;18.55;92.83;100567.84;4972775;28;20054;-63
2023/07/13 03:53:42;;;;;;;1.52;1.15;;;;;;;18.58;92.77;100563.53;4970791;28;20035;-63
2023/07/13 03:56:09;;;;;;;1.20;1.00;;;;;;;18.71;92.32;100562.56;4977930;28;20526;-63
2023/07/13 03:58:38;;;;;;;1.45;1.17;;;;;;;18.73;91.45;100554.72;4960541;28;20549;-62
2023/07/13 04:01:11;;;;;;;1.27;0.90;;;;;;;18.77;92.01;100562.88;4968713;28;20042;-63
2023/07/13 04:03:38;;;;;;;3.40;1.02;;;;;;;18.83;91.25;100567.44;4963023;28;20029;-63
2023/07/13 04:06:06;;;;;;;1.10;0.85;;;;;;;18.79;91.07;100571.41;4970074;28;20415;-63
2023/07/13 04:08:36;;;;;;;1.40;0.98;;;;;;;18.59;92.37;100567.78;4970172;28;20153;-62
2023/07/13 04:11:04;;;;;;;1.57;0.93;;;;;;;18.73;92.00;100570.31;4968945;28;20057;-62
2023/07/13 04:13:29;;;;;;;1.52;1.00;;;;;;;18.74;91.11;100566.41;4969194;28;20022;-63
2023/07/13 04:15:55;;;;;;;1.33;1.05;;;;;;;18.71;91.46;100565.28;4967510;28;20691;-62
2023/07/13 04:18:21;;;;;;;1.77;0.90;;;;;;;18.65;92.17;100563.41;4971818;28;20046;-63
2023/07/13 04:20:47;;;;;;;2.28;1.50;;;;;;;18.65;92.60;100555.22;4957853;28;20022;-63
2023/07/13 04:23:13;;;;;;;2.05;1.13;;;;;;;18.70;92.49;100561.00;4966295;28;20066;-64
2023/07/13 04:25:38;;;;;;;3.53;1.08;;;;;;;18.73;91.69;100559.41;4969317;28;20042;-63
2023/07/13 04:28:04;;;;;;;3.88;1.10;;;;;;;18.77;92.01;100560.13;4970984;28;20050;-63
2023/07/13 04:30:30;;;;;;;1.02;0.90;;;;;;;18.75;90.90;100559.78;4971315;28;20471;-62
2023/07/13 04:32:55;;;;;;;1.20;0.77;;;;;;;18.78;91.41;100567.91;4964982;28;20459;-62
2023/07/13 04:35:21;;;;;;;0.82;0.82;;;;;;;18.86;91.02;100566.63;4985916;28;20085;-63
2023/07/13 04:37:50;;;;;;;1.27;0.82;;;;;;;18.93;90.52;100571.97;4967071;28;20066;-63
2023/07/13 04:40:16;;;;;;;1.13;1.02;;;;;;;18.89;91.77;100559.56;4972506;28;20078;-63
2023/07/13 04:42:42;;;;;;;2.25;1.00;;;;;;;18.93;90.49;100558.31;4971063;28;20395;-62
2023/07/13 04:45:08;;;;;;;2.17;1.33;;;;;;;18.97;90.81;100557.50;4972388;28;20034;-63
2023/07/13 04:47:33;;;;;;;1.88;1.20;;;;;;;18.98;90.86;100554.34;4963277;28;20054;-62
2023/07/13 04:49:58;;;;;;;4.75;1.40;;;;;;;19.01;91.47;100553.50;4963212;28;20026;-63
2023/07/13 04:52:24;;;;;;;1.50;0.90;;;;;;;19.04;91.44;100544.50;4971090;28;20039;-62
2023/07/13 04:54:50;;;;;;;2.70;1.30;;;;;;;19.15;90.97;100552.50;4972041;28;20112;-64
2023/07/13 04:57:15;;;;;;;2.38;1.00;;;;;;;19.21;90.73;100557.09;4971684;28;20054;-63
2023/07/13 04:59:42;;;;;;;1.05;0.90;;;;;;;19.25;91.13;100562.50;4968223;28;20193;-62
2023/07/13 05:02:07;;;;;;;3.00;1.33;;;;;;;19.25;90.98;100555.09;4960039;28;20026;-62
2023/07/13 05:04:33;;;;;;;1.38;1.10;;;;;;;19.33;90.94;100559.28;4970977;28;20391;-62
2023/07/13 05:07:19;;;;;;;2.75;1.05;;;;;;;19.29;91.14;100558.53;4967850;28;20033;-61
2023/07/13 05:09:45;;;;;;;1.63;0.80;;;;;;;19.38;91.19;100566.97;4938512;29;20044;-63
2023/07/13 05:12:11;;;;;;;1.73;1.17;;;;;;;19.49;90.28;100564.81;4919703;29;20415;-62
2023/07/13 05:14:36;;;;;;;1.83;1.05;;;;;;;19.44;90.22;100570.78;4937157;29;20044;-61
2023/07/13 05:17:02;;;;;;;5.03;1.23;;;;;;;19.61;90.87;100571.66;4923248;29;20497;-62
2023/07/13 05:19:27;;;;;;;1.38;0.88;;;;;;;20.04;90.00;100585.28;4930630;29;20043;-62
2023/07/13 05:21:53;;;;;;;1.98;1.33;;;;;;;20.42;89.09;100592.00;4931112;29;20632;-61
2023/07/13 05:24:18;;;;;;;1.58;1.17;;;;;;;20.73;86.44;100587.75;4932130;29;20699;-63
2023/07/13 05:26:44;;;;;;;3.38;1.60;;;;;;;21.33;85.59;100594.63;4928811;29;20039;-63
2023/07/13 05:29:12;;;;;;;2.85;1.50;;;;;;;21.80;83.02;100601.25;4926930;29;20624;-61
2023/07/13 05:31:38;;;;;;;4.65;1.85;;;;;;;22.00;79.08;100606.59;4922847;29;20691;-60
2023/07/13 05:34:03;;;;;;;3.63;1.63;;;;;;;22.28;78.39;100598.34;4934095;29;20305;-64
2023/07/13 05:36:28;;;;;;;0.85;0.77;;;;;;;22.41;76.65;100601.13;4929930;29;20051;-63
2023/07/13 05:38:54;;;;;;;1.92;1.20;;;;;;;22.47;76.82;100607.63;4934061;29;20099;-63
2023/07/13 05:41:19;;;;;;;1.50;1.02;;;;;;;22.53;77.21;100611.34;4929410;29;20031;-63
2023/07/13 05:43:45;;;;;;;2.45;1.05;;;;;;;22.84;76.18;100617.88;4928143;29;20123;-63
2023/07/13 05:46:10;;;;;;;1.20;1.00;;;;;;;22.93;75.68;100615.28;4930098;28;20047;-62
2023/07/13 05:48:35;;;;;;;1.98;1.00;;;;;;;23.05;75.69;100614.47;4962934;28;20137;-62
2023/07/13 05:51:01;;;;;;;1.40;0.75;;;;;;;23.35;75.40;100609.63;4967730;28;20050;-60
2023/07/13 05:53:26;;;;;;;1.55;1.10;;;;;;;23.60;75.38;100617.81;4969907;28;20542;-63
2023/07/13 05:55:54;;;;;;;1.27;0.70;;;;;;;23.85;73.11;100606.75;4974291;28;20403;-64
2023/07/13 05:58:20;;;;;;;3.78;1.38;;;;;;;23.86;72.95;100613.78;4966599;28;20492;-63
2023/07/13 06:00:57;;;;;;;1.67;1.00;;;;;;;23.91;72.03;100616.75;4965466;28;20062;-64
2023/07/13 06:03:23;;;;;;;1.55;1.13;;;;;;;23.52;72.07;100622.06;4972315;28;20030;-63
2023/07/13 06:05:48;;;;;;;1.05;0.82;;;;;;;23.23;72.53;100617.44;4973425;28;20029;-63
2023/07/13 06:08:14;;;;;;;2.03;0.70;;;;;;;22.95;74.15;100632.09;4970047;28;20031;-64
2023/07/13 06:10:39;;;;;;;14.52;0.90;;;;;;;22.73;75.92;100622.16;4967449;28;20035;-64
2023/07/13 06:13:04;;;;;;;4.78;0.93;;;;;;;22.82;75.70;100628.53;4970739;28;20045;-64
2023/07/13 06:15:30;;;;;;;1.52;0.77;;;;;;;22.91;75.97;100622.41;4962065;28;21987;-63
2023/07/13 06:17:55;;;;;;;1.58;0.70;;;;;;;23.05;75.61;100619.97;4971520;28;20038;-60
2023/07/13 06:20:21;;;;;;;1.33;0.63;;;;;;;23.08;75.93;100626.56;4980497;28;20026;-63
2023/07/13 06:22:47;;;;;;;1.33;1.00;;;;;;;23.27;76.35;100617.31;4982822;28;20109;-63
2023/07/13 06:25:13;;;;;;;2.53;0.68;;;;;;;23.52;74.68;100620.06;4968299;28;20419;-64
2023/07/13 06:27:38;;;;;;;0.75;0.57;;;;;;;23.64;73.94;100629.47;4970635;28;20031;-63
2023/07/13 06:30:04;;;;;;;2.25;0.68;;;;;;;23.69;73.00;100623.44;4960229;28;20031;-64
2023/07/13 06:32:30;;;;;;;6.18;0.80;;;;;;;23.86;73.10;100633.84;4980491;28;20039;-62
2023/07/13 06:34:55;;;;;;;5.85;0.95;;;;;;;23.99;72.58;100636.53;4971928;28;20034;-59
2023/07/13 06:37:21;;;;;;;1.73;0.60;;;;;;;24.29;71.60;100635.88;4977381;28;20030;-64
2023/07/13 06:39:46;;;;;;;2.55;0.65;;;;;;;24.35;71.00;100639.56;4979987;28;20022;-63
2023/07/13 06:42:12;;;;;;;0.95;0.50;;;;;;;24.16;70.00;100643.41;4971727;28;20034;-61
2023/07/13 06:44:37;;;;;;;2.88;0.70;;;;;;;23.92;71.48;100643.06;4967037;28;20034;-64
2023/07/13 06:47:03;;;;;;;0.20;0.20;;;;;;;23.56;71.17;100636.44;4969498;28;20793;-64
2023/07/13 06:49:28;;;;;;;1.88;0.60;;;;;;;23.63;72.31;100644.47;4969409;28;20046;-63
2023/07/13 06:51:54;;;;;;;0.75;0.57;;;;;;;23.79;70.86;100644.31;4971687;28;20092;-64
2023/07/13 06:54:19;;;;;;;5.03;0.70;;;;;;;23.79;69.85;100645.06;4971656;28;20026;-63
2023/07/13 06:56:45;;;;;;;1.02;0.45;;;;;;;23.50;71.11;100643.72;4978962;28;20030;-62
2023/07/13 06:59:10;;;;;;;2.30;0.50;;;;;;;23.70;70.60;100638.72;4976509;28;20043;-62
2023/07/13 07:01:35;;;;;;;1.35;0.50;;;;;;;23.62;70.45;100643.69;4971371;28;20043;-60
2023/07/13 07:04:01;;;;;;;0.40;0.40;;;;;;;23.47;71.25;100639.88;4979615;28;20041;-63
2023/07/13 07:06:27;;;;;;;1.00;0.70;;;;;;;23.45;71.35;100636.03;4975649;28;20041;-63
2023/07/13 07:08:52;;;;;;;0.80;0.50;;;;;;;23.43;71.75;100641.19;4972576;28;20019;-63
2023/07/13 07:11:24;;;;;;;0.88;0.75;;;;;;;23.42;72.35;100648.69;4972165;28;20129;-63
2023/07/13 07:13:51;;;;;;;0.70;0.40;;;;;;;23.37;72.44;100651.97;4958166;28;20129;-64
2023/07/13 07:16:17;;;;;;;1.08;0.98;;;;;;;23.27;72.77;100659.34;4969544;28;20442;-64
2023/07/13 07:18:43;;;;;;;8.00;0.65;;;;;;;23.28;73.12;100655.38;4963223;28;20041;-63
2023/07/13 07:21:08;;;;;;;1.55;0.60;;;;;;;23.25;72.74;100660.97;4964604;28;20653;-64
2023/07/13 07:23:34;;;;;;;1.45;0.60;;;;;;;23.25;73.00;100661.75;4963093;28;20061;-61
2023/07/13 07:25:59;;;;;;;0.43;0.43;;;;;;;23.56;71.82;100661.19;4947161;28;20043;-61
2023/07/13 07:28:28;;;;;;;2.17;0.68;;;;;;;23.52;71.69;100652.31;4970725;28;20081;-64
2023/07/13 07:30:55;;;;;;;3.58;0.70;;;;;;;23.52;71.64;100652.31;4965383;28;20055;-63
2023/07/13 07:33:21;;;;;;;2.38;0.60;;;;;;;23.64;70.76;100655.00;4950327;28;20102;-63
2023/07/13 07:35:46;;;;;;;1.45;0.55;;;;;;;23.80;70.00;100656.84;4957698;28;20038;-62
2023/07/13 07:38:12;;;;;;;0.95;0.50;;;;;;;23.85;70.17;100661.78;4958419;28;20096;-63
2023/07/13 07:40:40;;;;;;;1.17;0.70;;;;;;;24.16;69.36;100668.97;4971766;28;20496;-61
2023/07/13 07:43:06;;;;;;;0.57;0.47;;;;;;;24.40;69.72;100660.25;4954384;28;20408;-60
2023/07/13 07:45:32;;;;;;;2.45;0.32;;;;;;;24.63;67.06;100657.03;4961964;28;20031;-64
2023/07/13 07:47:59;;;;;;;1.55;0.70;;;;;;;24.32;66.92;100668.00;4964617;28;20667;-64
2023/07/13 07:50:28;;;;;;;0.65;0.52;;;;;;;24.01;69.03;100667.13;4971430;28;20097;-62
2023/07/13 07:52:55;;;;;;;2.80;0.93;;;;;;;23.98;67.96;100659.78;4969783;28;20031;-64
2023/07/13 07:55:22;;;;;;;1.13;0.52;;;;;;;23.83;70.14;100658.69;4971390;28;20042;-62
2023/07/13 07:57:48;;;;;;;2.33;0.65;;;;;;;23.96;70.89;100654.69;4967667;28;20419;-63
2023/07/13 08:00:15;;;;;;;4.07;0.63;;;;;;;24.23;69.66;100662.44;4979801;28;20041;-60
2023/07/13 08:02:43;;;;;;;0.47;0.47;;;;;;;24.59;67.09;100664.66;4975390;28;20103;-63
2023/07/13 08:05:09;;;;;;;1.67;0.55;;;;;;;24.47;66.97;100666.28;4974520;28;20030;-62
2023/07/13 08:07:38;;;;;;;4.07;0.50;;;;;;;24.46;67.58;100659.25;4970648;28;20038;-63
2023/07/13 08:10:06;;;;;;;0.55;0.40;;;;;;;24.59;67.36;100661.91;4963080;28;20136;-63
2023/07/13 08:12:39;;;;;;;1.95;0.52;;;;;;;24.74;67.23;100651.91;4953837;28;20038;-63
2023/07/13 08:15:07;;;;;;;1.00;0.70;;;;;;;24.89;65.82;100647.44;4968406;28;20766;-64
2023/07/13 08:17:32;;;;;;;2.10;0.95;;;;;;;25.01;64.55;100665.81;4976937;28;20046;-64
2023/07/13 08:19:57;;;;;;;0.63;0.50;;;;;;;25.24;64.35;100651.50;4969435;28;20027;-62
2023/07/13 08:22:23;;;;;;;2.15;0.70;;;;;;;25.30;64.49;100654.47;4970808;28;20498;-63
2023/07/13 08:24:55;;;;;;;1.67;0.70;;;;;;;25.42;64.05;100662.66;4976939;28;20117;-63
2023/07/13 08:27:22;;;;;;;2.53;0.93;;;;;;;25.65;63.69;100664.84;4972018;28;20031;-63
2023/07/13 08:29:48;;;;;;;5.90;1.52;;;;;;;25.66;61.62;100660.88;4971524;28;20399;-64
2023/07/13 08:32:14;;;;;;;0.70;0.70;;;;;;;25.11;63.18;100652.84;4970688;28;20149;-63
2023/07/13 08:34:40;;;;;;;2.50;0.60;;;;;;;25.16;63.78;100657.78;4972102;28;20445;-64
2023/07/13 08:37:06;;;;;;;1.15;0.70;;;;;;;25.39;62.75;100655.28;4972109;28;20734;-63
2023/07/13 08:39:33;;;;;;;0.75;0.50;;;;;;;25.41;62.03;100657.59;4967168;28;20035;-63
2023/07/13 08:42:22;;;;;;;1.05;0.63;;;;;;;25.47;61.28;100655.75;4967468;28;20026;-63
2023/07/13 08:45:06;;;;;;;1.83;1.05;;;;;;;25.41;61.70;100665.88;4971240;28;20061;-63
2023/07/13 08:47:37;;;;;;;0.70;0.43;;;;;;;25.66;59.59;100662.84;4968173;28;20065;-60
2023/07/13 08:50:10;;;;;;;1.48;0.90;;;;;;;25.58;60.10;100670.66;4966949;28;20077;-65
2023/07/13 08:52:38;;;;;;;1.15;0.70;;;;;;;25.77;59.57;100666.69;4967561;28;20031;-63
2023/07/13 08:55:13;;;;;;;0.57;0.43;;;;;;;25.99;59.05;100655.53;4965094;28;20038;-63
2023/07/13 08:57:41;;;;;;;3.80;0.80;;;;;;;26.08;58.54;100663.81;4953659;28;20035;-62
2023/07/13 09:00:31;;;;;;;3.20;0.75;;;;;;;25.89;58.69;100663.03;4969826;28;20034;-63
2023/07/13 09:03:00;;;;;;;1.90;0.40;;;;;;;26.11;59.51;100653.88;4905437;29;20556;-62
2023/07/13 09:05:39;;;;;;;0.60;0.50;;;;;;;26.43;58.22;100662.28;4899666;29;20040;-63
2023/07/13 09:08:14;;;;;;;1.15;0.70;;;;;;;26.67;56.95;100662.38;4910553;29;20155;-63
2023/07/13 09:10:49;;;;;;;1.65;0.40;;;;;;;26.70;56.82;100661.47;4909784;29;20032;-63
2023/07/13 09:13:33;;;;;;;0.95;0.50;;;;;;;26.93;56.42;100658.00;4910084;29;20488;-63
2023/07/13 09:15:59;;;;;;;2.47;0.77;;;;;;;27.19;55.33;100659.13;4918578;29;20530;-62
2023/07/13 09:18:48;;;;;;;0.60;0.50;;;;;;;27.29;54.52;100659.84;4894221;29;20037;-63
2023/07/13 09:21:26;;;;;;;1.67;0.68;;;;;;;27.38;53.88;100659.81;4912890;29;20153;-63
2023/07/13 09:23:59;;;;;;;3.80;0.70;;;;;;;27.59;53.98;100664.31;4923038;29;20523;-63
2023/07/13 09:26:29;;;;;;;0.50;0.50;;;;;;;28.02;52.12;100674.81;4917178;29;20219;-63
2023/07/13 09:29:11;;;;;;;1.83;0.60;;;;;;;27.77;52.47;100663.44;4920280;29;20551;-63
2023/07/13 09:31:39;;;;;;;;;;;;;;;27.66;51.94;100667.50;4923025;29;20063;-63
2023/07/13 09:34:10;;;;;;;0.52;0.50;;;;;;;27.34;52.51;100670.31;4916473;29;20335;-61
2023/07/13 09:36:35;;;;;;;1.05;0.60;;;;;;;26.86;54.94;100669.41;4917460;29;20046;-60
2023/07/13 09:39:20;;;;;;;1.58;0.70;;;;;;;26.41;58.70;100669.47;4921627;28;20665;-62
2023/07/13 09:41:45;;;;;;;2.53;0.80;;;;;;;26.10;60.37;100661.38;4967817;28;20062;-58
2023/07/13 09:44:16;;;;;;;0.80;0.68;;;;;;;25.97;58.77;100660.75;4972140;28;20439;-62
2023/07/13 09:46:46;;;;;;;;;;;;;;;25.63;59.81;100667.28;4970178;28;20078;-60
2023/07/13 09:49:12;;;;;;;1.60;0.85;;;;;;;25.64;60.63;100668.06;4977302;28;20379;-61
2023/07/13 09:51:40;;;;;;;3.47;1.08;;;;;;;25.69;61.00;100667.44;4967371;28;20042;-62
2023/07/13 09:54:17;;;;;;;2.15;0.73;;;;;;;25.87;60.04;100654.44;4975657;28;20369;-60
2023/07/13 09:56:42;;;;;;;4.72;0.80;;;;;;;26.08;59.56;100660.28;4970482;28;20030;-61
2023/07/13 09:59:19;;;;;;;1.27;0.93;;;;;;;26.52;57.15;100664.22;4975311;28;20507;-61
2023/07/13 10:01:45;;;;;;;1.42;1.02;;;;;;;26.83;56.20;100667.56;4975271;28;20027;-63
2023/07/13 10:04:18;;;;;;;1.05;0.80;;;;;;;27.33;54.73;100680.59;4977287;28;20380;-57
2023/07/13 10:06:45;;;;;;;7.65;0.88;;;;;;;27.62;54.32;100671.69;4972224;28;20365;-62
2023/07/13 10:09:16;;;;;;;1.05;0.80;;;;;;;27.91;52.97;100666.25;4968642;28;20039;-62
2023/07/13 10:11:41;;;;;;;6.97;0.90;;;;;;;28.25;51.47;100671.22;4972377;28;20080;-62
2023/07/13 10:14:23;;;;;;;1.40;0.80;;;;;;;28.55;50.58;100680.38;4976779;28;20466;-62
2023/07/13 10:16:53;;;;;;;;;;;;;;;28.70;49.53;100667.25;4973974;28;20039;-62
2023/07/13 10:19:26;;;;;;;1.27;0.80;;;;;;;28.91;47.72;100674.41;4976795;28;19925;-61
2023/07/13 10:22:03;;;;;;;0.95;0.55;;;;;;;28.83;48.50;100666.94;4971377;28;20043;-64
2023/07/13 10:24:32;;;;;;;1.45;0.90;;;;;;;28.94;48.24;100664.38;4982877;28;20034;-61
2023/07/13 10:27:04;;;;;;;1.45;0.73;;;;;;;28.84;46.54;100665.72;4973993;28;20030;-59
2023/07/13 10:29:36;;;;;;;0.75;0.63;;;;;;;28.55;47.55;100663.72;4975518;28;20043;-59
2023/07/13 10:32:11;;;;;;;1.77;0.60;;;;;;;28.09;48.75;100662.56;4973504;28;20031;-61
2023/07/13 10:34:38;;;;;;;2.45;0.88;;;;;;;27.85;48.68;100667.38;4974233;28;20039;-61
2023/07/13 10:37:08;;;;;;;0.55;0.50;;;;;;;27.67;48.95;100668.25;4964764;28;20477;-60
2023/07/13 10:39:35;;;;;;;1.77;0.82;;;;;;;28.00;49.15;100665.44;4973860;28;20715;-58
2023/07/13 10:42:27;;;;;;;0.77;0.70;;;;;;;27.89;49.40;100665.97;4973297;28;20118;-59
2023/07/13 10:44:52;;;;;;;2.05;0.75;;;;;;;27.60;49.82;100660.31;4969059;28;20554;-59
2023/07/13 10:47:18;;;;;;;1.50;0.82;;;;;;;27.57;49.13;100661.25;4972784;28;20113;-63
2023/07/13 10:49:45;;;;;;;2.30;1.15;;;;;;;27.43;49.35;100661.94;4973715;28;20097;-59
2023/07/13 10:52:46;;;;;;;1.67;0.88;;;;;;;27.68;49.55;100659.47;4947616;28;20039;-62
2023/07/13 10:55:30;;;;;;;1.00;0.80;;;;;;;27.72;49.01;100662.06;4975943;28;20138;-61
2023/07/13 10:58:00;;;;;;;1.85;0.77;;;;;;;27.53;49.38;100664.19;4978280;28;20123;-61
2023/07/13 11:00:26;;;;;;;0.95;0.50;;;;;;;27.77;48.65;100658.66;4965467;28;20125;-59
2023/07/13 11:03:00;;;;;;;1.25;0.70;;;;;;;27.93;48.16;100661.00;4968829;28;20159;-63
2023/07/13 11:05:31;;;;;;;1.27;0.60;;;;;;;28.26;48.39;100669.97;4962655;28;20031;-62
2023/07/13 11:08:26;;;;;;;;;;;;;;;28.44;49.45;100669.81;4970090;28;20074;-62
2023/07/13 11:10:55;;;;;;;1.58;0.60;;;;;;;29.04;46.62;100674.09;4959059;28;19921;-62
2023/07/13 11:13:58;;;;;;;0.75;0.55;;;;;;;28.93;47.83;100673.94;4964021;28;20415;-61
2023/07/13 11:16:23;;;;;;;1.15;0.75;;;;;;;28.95;47.08;100671.44;4968376;28;20058;-62
2023/07/13 11:19:10;;;;;;;1.90;0.75;;;;;;;28.80;46.98;100668.69;4972202;28;20054;-62
2023/07/13 11:22:03;;;;;;;1.92;0.52;;;;;;;28.43;47.49;100671.06;4962181;28;20368;-61
2023/07/13 11:24:58;;;;;;;1.05;0.75;;;;;;;28.44;46.49;100664.25;4961087;28;20046;-61
2023/07/13 11:27:48;;;;;;;0.90;0.70;;;;;;;28.79;46.78;100677.47;4957907;28;20462;-63
2023/07/13 11:30:29;;;;;;;0.70;0.60;;;;;;;29.16;45.60;100681.38;4959575;28;20539;-60
2023/07/13 11:33:12;;;;;;;;;;;;;;;29.21;44.59;100669.63;4970523;28;20125;-59
2023/07/13 11:35:45;;;;;;;1.40;0.60;;;;;;;28.74;46.21;100665.06;4975482;28;20358;-61